Terminal Aerodrome Forecast
Issued by NWS

Home | Current Version | Previous Version | Text Only | Print | Product List | Glossary On
Versions: 1 2 3 4 5 6 7 8 9 10 11 12 13 14 15 16 17 18 19 20 21 22 23 24 25 26
437
FTUS41 KOKX 271139
TAFSWF
TAF
KSWF 271139Z 2712/2818 10006KT 1SM -RA BR OVC003 WS020/22035KT
     FM271400 13005KT 2SM -RA BR OVC005
     FM271600 22004KT 3SM BR OVC007
     FM272000 24005KT 5SM BR OVC015
     FM272300 00000KT 6SM BR BKN020
     FM280400 VRB03KT 1SM BR OVC009
     FM280800 07003KT 1/2SM FG OVC003
     FM281500 09003KT 1SM -RA BR OVC006
      AMD NOT SKED=

USA.gov is the U.S. government's official web portal to all federal, state and local government web resources and services.